TimeEET,TemperatureF,Dew PointF,Humidity,Sea Level PressureIn,VisibilityMPH,Wind Direction,Wind SpeedMPH,Gust SpeedMPH,PrecipitationIn,Events,Conditions,WindDirDegrees,DateUTC
12:50 AM,59.0,44.6,59,30.18,6.2,Calm,Calm,-,N/A,,Mostly Cloudy,0,2012-11-22 22:50:00
1:50 AM,57.2,46.4,67,30.18,6.2,Calm,Calm,-,N/A,,Mostly Cloudy,0,2012-11-22 23:50:00
2:50 AM,57.2,46.4,67,30.18,6.2,Calm,Calm,-,N/A,,Mostly Cloudy,0,2012-11-23 00:50:00
3:50 AM,57.2,46.4,67,30.18,6.2,North,6.9,-,N/A,,Mostly Cloudy,360,2012-11-23 01:50:00
4:50 AM,57.2,44.6,63,30.18,6.2,North,5.8,-,N/A,,Mostly Cloudy,360,2012-11-23 02:50:00
5:20 AM,57.2,46.4,67,30.18,6.2,Calm,Calm,-,N/A,,Mostly Cloudy,0,2012-11-23 03:20:00
5:50 AM,57.2,46.4,67,30.18,6.2,Calm,Calm,-,N/A,,Mostly Cloudy,0,2012-11-23 03:50:00
6:20 AM,57.2,46.4,67,30.18,6.2,Calm,Calm,-,N/A,,Mostly Cloudy,0,2012-11-23 04:20:00
6:50 AM,55.4,46.4,72,30.18,6.2,Calm,Calm,-,N/A,,Mostly Cloudy,0,2012-11-23 04:50:00
7:20 AM,55.4,46.4,72,30.18,6.2,Variable,2.3,-,N/A,,Mostly Cloudy,0,2012-11-23 05:20:00
7:50 AM,55.4,46.4,72,30.18,6.2,NNW,4.6,-,N/A,,Mostly Cloudy,330,2012-11-23 05:50:00
8:20 AM,57.2,46.4,67,30.21,6.2,Variable,3.5,-,N/A,,Mostly Cloudy,0,2012-11-23 06:20:00
8:50 AM,57.2,48.2,72,30.21,6.2,Variable,2.3,-,N/A,,Mostly Cloudy,0,2012-11-23 06:50:00
9:20 AM,59.0,48.2,67,30.21,6.2,NW,5.8,-,N/A,,Mostly Cloudy,320,2012-11-23 07:20:00
9:50 AM,59.0,48.2,67,30.21,6.2,Variable,3.5,-,N/A,,Scattered Clouds,0,2012-11-23 07:50:00
10:20 AM,60.8,46.4,59,30.21,6.2,NW,4.6,-,N/A,,Scattered Clouds,310,2012-11-23 08:20:00
10:50 AM,60.8,46.4,59,30.21,6.2,NNW,8.1,-,N/A,,Scattered Clouds,340,2012-11-23 08:50:00
11:20 AM,62.6,46.4,55,30.21,6.2,NNW,6.9,-,N/A,,Scattered Clouds,330,2012-11-23 09:20:00
11:50 AM,62.6,46.4,55,30.18,6.2,NNW,8.1,-,N/A,,Scattered Clouds,340,2012-11-23 09:50:00
12:20 PM,62.6,44.6,52,30.18,6.2,North,9.2,-,N/A,,Scattered Clouds,350,2012-11-23 10:20:00
12:50 PM,62.6,46.4,55,30.18,6.2,North,8.1,-,N/A,,Mostly Cloudy,360,2012-11-23 10:50:00
1:20 PM,62.6,48.2,59,30.18,6.2,NW,8.1,-,N/A,,Mostly Cloudy,320,2012-11-23 11:20:00
1:50 PM,62.6,46.4,55,30.18,6.2,NNW,6.9,-,N/A,,Mostly Cloudy,330,2012-11-23 11:50:00
2:20 PM,62.6,48.2,59,30.15,6.2,NW,8.1,-,N/A,,Mostly Cloudy,320,2012-11-23 12:20:00
2:50 PM,60.8,48.2,63,30.15,6.2,NNW,8.1,-,N/A,,Mostly Cloudy,330,2012-11-23 12:50:00
3:20 PM,60.8,48.2,63,30.15,6.2,NNW,8.1,-,N/A,,Mostly Cloudy,330,2012-11-23 13:20:00
3:50 PM,60.8,48.2,63,30.15,6.2,NNW,8.1,-,N/A,,Scattered Clouds,330,2012-11-23 13:50:00
4:20 PM,60.8,48.2,63,30.15,6.2,NW,9.2,-,N/A,,Scattered Clouds,320,2012-11-23 14:20:00
4:50 PM,59.0,48.2,67,30.15,6.2,NW,5.8,-,N/A,,Mostly Cloudy,320,2012-11-23 14:50:00
5:20 PM,59.0,48.2,67,30.18,6.2,NW,5.8,-,N/A,,Mostly Cloudy,320,2012-11-23 15:20:00
5:50 PM,59.0,48.2,67,30.18,6.2,NW,6.9,-,N/A,,Mostly Cloudy,320,2012-11-23 15:50:00
6:20 PM,57.2,48.2,72,30.18,6.2,Variable,3.5,-,N/A,,Mostly Cloudy,0,2012-11-23 16:20:00
6:50 PM,57.2,48.2,72,30.18,6.2,Variable,3.5,-,N/A,,Mostly Cloudy,0,2012-11-23 16:50:00
7:20 PM,55.4,48.2,77,30.18,6.2,Variable,2.3,-,N/A,,Mostly Cloudy,0,2012-11-23 17:20:00
7:50 PM,55.4,48.2,77,30.18,6.2,North,4.6,-,N/A,,Mostly Cloudy,350,2012-11-23 17:50:00
8:20 PM,53.6,48.2,82,30.18,6.2,Calm,Calm,-,N/A,,Mostly Cloudy,0,2012-11-23 18:20:00
8:50 PM,53.6,48.2,82,30.18,6.2,NW,4.6,-,N/A,,Mostly Cloudy,320,2012-11-23 18:50:00
9:20 PM,53.6,48.2,82,30.18,6.2,NW,4.6,-,N/A,,Scattered Clouds,310,2012-11-23 19:20:00
9:50 PM,53.6,48.2,82,30.18,6.2,North,5.8,-,N/A,,Mostly Cloudy,360,2012-11-23 19:50:00
10:20 PM,53.6,48.2,82,30.18,6.2,North,4.6,-,N/A,,Mostly Cloudy,350,2012-11-23 20:20:00
10:50 PM,53.6,46.4,77,30.18,6.2,North,4.6,-,N/A,,Mostly Cloudy,350,2012-11-23 20:50:00
11:50 PM,51.8,46.4,82,30.18,6.2,NNW,3.5,-,N/A,,Mostly Cloudy,340,2012-11-23 21:50:00